createdAt,value
2022-09-25T00:01:22.783Z,48.41
2022-09-25T00:03:49.319Z,48.31
2022-09-25T00:06:22.836Z,48.06
2022-09-25T00:08:49.346Z,48.02
2022-09-25T00:11:21.180Z,48.06
2022-09-25T00:13:47.741Z,48.12
2022-09-25T00:16:15.959Z,48.17
2022-09-25T00:19:01.105Z,47.78
2022-09-25T00:21:31.426Z,48.11
2022-09-25T00:24:00.421Z,47.81
2022-09-25T00:26:28.727Z,47.74
2022-09-25T00:28:55.218Z,47.92
2022-09-25T00:31:24.489Z,47.86
2022-09-25T00:33:51.982Z,48.09
2022-09-25T00:36:19.186Z,47.85
2022-09-25T00:38:48.348Z,48.04
2022-09-25T00:41:16.520Z,48.15
2022-09-25T00:43:48.781Z,47.95
2022-09-25T00:46:37.112Z,47.87
2022-09-25T00:49:10.043Z,47.87
2022-09-25T00:51:38.839Z,47.83
2022-09-25T00:54:05.389Z,47.84
2022-09-25T00:56:36.207Z,47.84
2022-09-25T00:59:02.656Z,47.99
2022-09-25T01:01:29.222Z,47.83
2022-09-25T01:03:56.070Z,47.70
2022-09-25T01:06:22.560Z,47.83
2022-09-25T01:08:49.014Z,47.92
2022-09-25T01:11:16.334Z,47.65
2022-09-25T01:13:42.780Z,47.73
2022-09-25T01:16:19.934Z,47.59
2022-09-25T01:18:53.106Z,47.55
2022-09-25T01:21:31.664Z,47.70
2022-09-25T01:24:18.997Z,47.69
2022-09-25T01:27:06.954Z,47.62
2022-09-25T01:29:48.507Z,47.69
2022-09-25T01:32:33.538Z,47.72
2022-09-25T01:35:02.554Z,47.60
2022-09-25T01:37:33.856Z,47.60
2022-09-25T01:40:08.301Z,47.78
2022-09-25T01:42:39.469Z,47.56
2022-09-25T01:45:07.625Z,47.62
2022-09-25T01:47:38.484Z,47.69
2022-09-25T01:50:10.181Z,47.64
2022-09-25T01:52:41.698Z,47.82
2022-09-25T01:55:10.691Z,47.64
2022-09-25T01:57:53.708Z,47.54
2022-09-25T02:00:22.140Z,47.67
2022-09-25T02:03:01.133Z,47.56
2022-09-25T02:05:35.083Z,47.62
2022-09-25T02:08:07.692Z,47.52
2022-09-25T02:10:35.767Z,47.61
2022-09-25T02:13:13.410Z,47.53
2022-09-25T02:15:43.236Z,47.68
2022-09-25T02:18:30.334Z,47.52
2022-09-25T02:21:02.050Z,47.21
2022-09-25T02:23:40.804Z,47.16
2022-09-25T02:26:09.137Z,47.19
2022-09-25T02:28:35.964Z,47.31
2022-09-25T02:31:03.867Z,47.64
2022-09-25T02:33:30.363Z,47.89
2022-09-25T02:35:58.816Z,47.87
2022-09-25T02:38:25.279Z,47.67
2022-09-25T02:41:03.788Z,47.71
2022-09-25T02:43:30.081Z,47.64
2022-09-25T02:46:18.615Z,47.90
2022-09-25T02:48:56.688Z,47.64
2022-09-25T02:51:35.389Z,47.74
2022-09-25T02:54:23.072Z,47.95
2022-09-25T02:57:06.567Z,47.70
2022-09-25T02:59:51.679Z,47.90
2022-09-25T03:02:18.250Z,48.04
2022-09-25T03:04:44.758Z,47.97
2022-09-25T03:07:11.200Z,47.87
2022-09-25T03:09:37.677Z,47.80
2022-09-25T03:12:07.210Z,47.85
2022-09-25T03:14:33.678Z,47.64
2022-09-25T03:17:00.835Z,47.72
2022-09-25T03:19:28.496Z,47.45
2022-09-25T03:21:55.009Z,47.71
2022-09-25T03:24:21.529Z,47.39
2022-09-25T03:26:48.003Z,47.50
2022-09-25T03:29:14.823Z,47.51
2022-09-25T03:31:42.625Z,47.36
2022-09-25T03:34:09.677Z,47.54
2022-09-25T03:36:36.204Z,47.64
2022-09-25T03:39:02.709Z,47.55
2022-09-25T03:41:30.799Z,47.78
2022-09-25T03:43:57.787Z,47.69
2022-09-25T03:46:34.096Z,47.63
2022-09-25T03:49:00.770Z,47.75
2022-09-25T03:51:28.119Z,47.81
2022-09-25T03:53:54.690Z,47.65
2022-09-25T03:56:23.419Z,48.02
2022-09-25T03:58:51.089Z,47.82
2022-09-25T04:01:19.402Z,47.71
2022-09-25T04:03:47.316Z,47.67
2022-09-25T04:06:18.351Z,47.80
2022-09-25T04:08:45.331Z,47.53
2022-09-25T04:11:12.324Z,47.80
2022-09-25T04:13:40.619Z,47.73
2022-09-25T04:16:08.216Z,47.72
2022-09-25T04:18:34.853Z,47.75
2022-09-25T04:21:02.081Z,47.78
2022-09-25T04:23:28.530Z,47.47
2022-09-25T04:25:55.000Z,47.67
2022-09-25T04:28:22.403Z,47.71
2022-09-25T04:30:49.206Z,47.64
2022-09-25T04:33:34.725Z,47.51
2022-09-25T04:36:01.267Z,47.56
2022-09-25T04:38:28.061Z,47.58
2022-09-25T04:40:54.663Z,47.54
2022-09-25T04:43:21.174Z,47.54
2022-09-25T04:45:48.026Z,46.75
2022-09-25T04:48:14.548Z,46.62
2022-09-25T04:50:47.475Z,46.29
2022-09-25T04:53:13.934Z,46.37
2022-09-25T04:55:40.416Z,46.20
2022-09-25T04:58:06.868Z,46.04
2022-09-25T05:00:33.430Z,46.08
2022-09-25T05:03:01.860Z,45.82
2022-09-25T05:05:30.478Z,46.01
2022-09-25T05:07:58.305Z,45.92
2022-09-25T05:10:30.190Z,45.83
2022-09-25T05:13:03.006Z,45.99
2022-09-25T05:15:31.413Z,45.91
2022-09-25T05:18:13.565Z,46.16
2022-09-25T05:20:40.022Z,46.10
2022-09-25T05:23:06.483Z,46.03
2022-09-25T05:25:33.001Z,46.21
2022-09-25T05:27:59.783Z,45.93
2022-09-25T05:30:26.790Z,45.74
2022-09-25T05:32:53.354Z,45.45
2022-09-25T05:35:20.963Z,45.40
2022-09-25T05:37:47.429Z,45.49
2022-09-25T05:40:15.653Z,45.52
2022-09-25T05:42:44.103Z,45.58
2022-09-25T05:45:14.487Z,45.55
2022-09-25T05:47:40.987Z,45.39
2022-09-25T05:50:09.154Z,45.58
2022-09-25T05:52:35.703Z,45.40
2022-09-25T05:55:03.417Z,45.49
2022-09-25T05:57:33.304Z,45.75
2022-09-25T05:59:59.833Z,45.87
2022-09-25T06:02:26.402Z,45.51
2022-09-25T06:04:53.283Z,45.98
2022-09-25T06:07:19.971Z,45.83
2022-09-25T06:09:46.436Z,45.66
2022-09-25T06:12:12.896Z,45.80
2022-09-25T06:14:40.907Z,45.71
2022-09-25T06:17:07.903Z,45.63
2022-09-25T06:19:35.542Z,45.70
2022-09-25T06:22:02.029Z,45.83
2022-09-25T06:24:28.470Z,45.89
2022-09-25T06:26:54.922Z,45.86
2022-09-25T06:29:21.367Z,45.95
2022-09-25T06:31:47.852Z,45.95
2022-09-25T06:34:14.320Z,46.07
2022-09-25T06:36:40.777Z,46.37
2022-09-25T06:39:07.305Z,46.23
2022-09-25T06:41:33.770Z,45.82
2022-09-25T06:44:00.291Z,46.00
2022-09-25T06:46:26.798Z,46.01
2022-09-25T06:48:54.193Z,45.87
2022-09-25T06:51:21.382Z,46.11
2022-09-25T06:53:47.859Z,46.10
2022-09-25T06:56:14.343Z,46.11
2022-09-25T06:58:40.778Z,46.10
2022-09-25T07:01:10.407Z,46.24
2022-09-25T07:03:46.374Z,45.91
2022-09-25T07:06:13.945Z,45.88
2022-09-25T07:08:40.470Z,46.20
2022-09-25T07:11:07.180Z,47.47
2022-09-25T07:13:34.993Z,48.19
2022-09-25T07:16:03.223Z,48.55
2022-09-25T07:18:29.730Z,47.56
2022-09-25T07:21:04.155Z,47.02
2022-09-25T07:23:31.279Z,49.13
2022-09-25T07:26:06.500Z,50.57
2022-09-25T07:28:32.963Z,50.56
2022-09-25T07:30:59.460Z,50.80
2022-09-25T07:33:25.923Z,50.76
2022-09-25T07:35:52.662Z,50.67
2022-09-25T07:38:19.497Z,50.80
2022-09-25T07:40:46.268Z,51.65
2022-09-25T07:43:12.780Z,51.03
2022-09-25T07:45:39.323Z,49.33
2022-09-25T07:48:06.267Z,48.80
2022-09-25T07:50:32.886Z,47.81
2022-09-25T07:52:59.349Z,47.51
2022-09-25T07:55:28.109Z,47.10
2022-09-25T07:57:56.943Z,46.87
2022-09-25T08:00:23.396Z,46.90
2022-09-25T08:02:59.465Z,46.51
2022-09-25T08:05:26.444Z,46.64
2022-09-25T08:07:53.562Z,46.57
2022-09-25T08:10:20.137Z,46.56
2022-09-25T08:12:46.579Z,46.59
2022-09-25T08:15:14.693Z,46.59
2022-09-25T08:17:41.559Z,46.14
2022-09-25T08:20:08.358Z,46.95
2022-09-25T08:22:34.892Z,47.03
2022-09-25T08:25:03.009Z,47.09
2022-09-25T08:27:30.280Z,47.23
2022-09-25T08:29:56.762Z,47.40
2022-09-25T08:32:23.210Z,47.26
2022-09-25T08:34:50.000Z,47.39
2022-09-25T08:37:17.135Z,47.39
2022-09-25T08:39:43.574Z,47.45
2022-09-25T08:42:18.686Z,48.74
2022-09-25T08:45:02.781Z,47.86
2022-09-25T08:47:53.017Z,47.48
2022-09-25T08:50:21.746Z,47.11
2022-09-25T08:52:50.391Z,46.63
2022-09-25T08:55:48.203Z,46.37
2022-09-25T08:58:27.275Z,47.73
2022-09-25T09:00:54.597Z,46.85
2022-09-25T09:03:22.755Z,47.34
2022-09-25T09:05:51.702Z,46.95
2022-09-25T09:08:20.382Z,46.66
2022-09-25T09:10:50.786Z,46.07
2022-09-25T09:13:45.968Z,45.94
2022-09-25T09:16:41.273Z,46.31
2022-09-25T09:19:09.162Z,45.84
2022-09-25T09:21:51.757Z,45.73
2022-09-25T09:24:36.858Z,45.81
2022-09-25T09:27:40.859Z,45.86
2022-09-25T09:30:29.720Z,47.96
2022-09-25T09:32:59.085Z,46.42
2022-09-25T09:35:47.815Z,45.75
2022-09-25T09:38:21.316Z,45.68
2022-09-25T09:41:14.225Z,45.61
2022-09-25T09:44:19.164Z,46.42
2022-09-25T09:47:17.411Z,46.88
2022-09-25T09:49:53.403Z,45.90
2022-09-25T09:52:22.349Z,45.24
2022-09-25T09:55:07.000Z,45.03
2022-09-25T09:57:44.588Z,45.04
2022-09-25T10:00:15.725Z,44.79
2022-09-25T10:02:56.951Z,44.50
2022-09-25T10:05:42.605Z,44.86
2022-09-25T10:08:09.666Z,44.74
2022-09-25T10:10:39.569Z,44.95
2022-09-25T10:13:18.801Z,45.05
2022-09-25T10:15:48.973Z,45.40
2022-09-25T10:18:15.713Z,45.26
2022-09-25T10:20:44.949Z,45.18
2022-09-25T10:23:31.551Z,44.98
2022-09-25T10:25:58.169Z,45.07
2022-09-25T10:28:30.381Z,45.21
2022-09-25T10:30:56.977Z,45.16
2022-09-25T10:33:27.315Z,45.20
2022-09-25T10:35:55.088Z,45.20
2022-09-25T10:38:28.497Z,45.03
2022-09-25T10:41:18.192Z,45.09
2022-09-25T10:44:00.032Z,45.27
2022-09-25T10:46:49.063Z,45.04
2022-09-25T10:49:44.672Z,44.97
2022-09-25T10:52:12.725Z,44.49
2022-09-25T10:54:44.449Z,44.33
2022-09-25T10:57:34.592Z,44.21
2022-09-25T11:00:01.709Z,44.69
2022-09-25T11:02:40.422Z,45.03
2022-09-25T11:05:08.967Z,44.75
2022-09-25T11:07:35.441Z,45.17
2022-09-25T11:10:01.901Z,45.64
2022-09-25T11:12:29.825Z,45.02
2022-09-25T11:15:02.351Z,45.06
2022-09-25T11:17:42.099Z,44.87
2022-09-25T11:20:22.641Z,45.20
2022-09-25T11:23:35.738Z,45.11
2022-09-25T11:26:18.818Z,44.16
2022-09-25T11:28:52.182Z,43.68
2022-09-25T11:31:28.533Z,42.89
2022-09-25T11:34:17.687Z,42.93
2022-09-25T11:36:56.147Z,42.64
2022-09-25T11:39:45.870Z,43.07
2022-09-25T11:42:17.072Z,42.68
2022-09-25T11:44:54.274Z,42.75
2022-09-25T11:47:33.190Z,42.66
2022-09-25T11:49:59.636Z,42.55
2022-09-25T11:52:42.140Z,42.44
2022-09-25T11:55:17.649Z,42.21
2022-09-25T11:57:54.395Z,42.17
2022-09-25T12:00:56.201Z,42.42
2022-09-25T12:03:37.632Z,42.68
2022-09-25T12:06:27.262Z,42.31
2022-09-25T12:09:13.577Z,42.49
2022-09-25T12:12:08.604Z,42.49
2022-09-25T12:15:00.685Z,42.49
2022-09-25T12:17:29.997Z,42.49
2022-09-25T12:20:05.349Z,42.38
2022-09-25T12:23:00.186Z,42.16
2022-09-25T12:25:51.524Z,42.25
2022-09-25T12:28:34.184Z,42.31
2022-09-25T12:31:07.180Z,42.20
2022-09-25T12:33:52.426Z,42.38
2022-09-25T12:36:49.252Z,42.36
2022-09-25T12:39:43.732Z,42.37
2022-09-25T12:42:23.451Z,42.57
2022-09-25T12:45:09.833Z,42.26
2022-09-25T12:47:41.337Z,42.59
2022-09-25T12:50:29.414Z,42.42
2022-09-25T12:52:59.809Z,42.76
2022-09-25T12:55:31.447Z,42.71
2022-09-25T12:58:28.591Z,42.52
2022-09-25T13:01:01.452Z,42.75
2022-09-25T13:04:07.296Z,42.87
2022-09-25T13:06:47.855Z,42.75
2022-09-25T13:09:51.275Z,42.87
2022-09-25T13:12:35.072Z,42.93
2022-09-25T13:15:12.973Z,42.71
2022-09-25T13:17:40.194Z,42.85
2022-09-25T13:20:28.667Z,42.72
2022-09-25T13:23:01.562Z,42.81
2022-09-25T13:25:28.039Z,42.76
2022-09-25T13:27:54.524Z,42.85
2022-09-25T13:30:23.706Z,42.97
2022-09-25T13:32:51.613Z,42.90
2022-09-25T13:35:20.002Z,43.00
2022-09-25T13:37:46.594Z,42.24
2022-09-25T13:40:42.546Z,42.77
2022-09-25T13:43:24.016Z,42.73
2022-09-25T13:46:21.382Z,42.92
2022-09-25T13:48:48.154Z,43.05
2022-09-25T13:51:20.601Z,43.11
2022-09-25T13:54:03.298Z,42.99
2022-09-25T13:56:41.852Z,43.33
2022-09-25T13:59:13.604Z,43.28
2022-09-25T14:01:51.196Z,43.70
2022-09-25T14:04:32.215Z,43.75
2022-09-25T14:07:19.400Z,43.81
2022-09-25T14:09:48.552Z,44.19
2022-09-25T14:12:45.162Z,44.10
2022-09-25T14:15:21.797Z,44.34
2022-09-25T14:17:49.293Z,43.61
2022-09-25T14:20:42.015Z,43.59
2022-09-25T14:23:20.489Z,43.96
2022-09-25T14:25:47.586Z,43.94
2022-09-25T14:28:25.337Z,43.88
2022-09-25T14:31:14.497Z,44.26
2022-09-25T14:34:07.929Z,44.09
2022-09-25T14:36:40.747Z,44.18
2022-09-25T14:39:29.430Z,44.44
2022-09-25T14:41:55.950Z,44.39
2022-09-25T14:44:41.212Z,44.53
2022-09-25T14:47:09.869Z,44.85
2022-09-25T14:49:39.076Z,45.01
2022-09-25T14:52:08.056Z,44.65
2022-09-25T14:54:37.885Z,45.02
2022-09-25T14:57:05.949Z,45.01
2022-09-25T14:59:39.707Z,45.02
2022-09-25T15:02:16.552Z,45.07
2022-09-25T15:04:43.036Z,44.85
2022-09-25T15:07:15.865Z,44.95
2022-09-25T15:09:49.349Z,44.95
2022-09-25T15:12:18.827Z,44.72
2022-09-25T15:15:10.552Z,44.75
2022-09-25T15:17:55.653Z,43.92
2022-09-25T15:20:23.338Z,44.46
2022-09-25T15:23:01.766Z,43.46
2022-09-25T15:25:37.345Z,43.19
2022-09-25T15:30:35.849Z,42.69
2022-09-25T15:33:02.324Z,43.52
2022-09-25T15:35:29.401Z,44.82
2022-09-25T15:38:02.680Z,44.73
2022-09-25T15:40:29.241Z,44.78
2022-09-25T15:42:56.010Z,42.54
2022-09-25T15:45:44.313Z,43.69
2022-09-25T15:48:36.054Z,43.97
2022-09-25T15:51:19.160Z,45.00
2022-09-25T15:53:55.644Z,46.17
2022-09-25T15:56:27.608Z,46.28
2022-09-25T15:59:06.828Z,45.75
2022-09-25T16:01:52.954Z,46.15
2022-09-25T16:04:42.435Z,45.88
2022-09-25T16:07:35.351Z,45.88
2022-09-25T16:10:13.916Z,45.86
2022-09-25T16:12:41.139Z,46.15
2022-09-25T16:15:26.909Z,45.95
2022-09-25T16:18:01.395Z,46.20
2022-09-25T16:20:34.785Z,45.97
2022-09-25T16:23:04.134Z,45.95
2022-09-25T16:25:37.057Z,46.35
2022-09-25T16:28:16.025Z,46.75
2022-09-25T16:30:49.777Z,47.07
2022-09-25T16:33:26.786Z,44.54
2022-09-25T16:36:11.624Z,45.40
2022-09-25T16:38:40.240Z,45.27
2022-09-25T16:41:09.620Z,45.95
2022-09-25T16:43:39.147Z,46.44
2022-09-25T16:46:14.327Z,46.34
2022-09-25T16:48:41.286Z,45.89
2022-09-25T16:51:14.157Z,45.78
2022-09-25T16:53:40.920Z,45.99
2022-09-25T16:56:08.078Z,44.17
2022-09-25T16:58:37.427Z,45.90
2022-09-25T17:01:05.062Z,45.90
2022-09-25T17:03:49.573Z,45.38
2022-09-25T17:06:19.813Z,44.81
2022-09-25T17:08:46.559Z,44.68
2022-09-25T17:11:13.284Z,44.52
2022-09-25T17:13:39.740Z,44.76
2022-09-25T17:16:06.467Z,44.63
2022-09-25T17:18:33.042Z,45.29
2022-09-25T17:21:00.399Z,45.08
2022-09-25T17:23:27.076Z,45.16
2022-09-25T17:26:07.397Z,45.29
2022-09-25T17:28:33.876Z,45.12
2022-09-25T17:31:01.025Z,44.94
2022-09-25T17:33:27.575Z,44.98
2022-09-25T17:36:04.752Z,45.08
2022-09-25T17:38:34.062Z,45.21
2022-09-25T17:41:05.596Z,45.14
2022-09-25T17:43:32.697Z,45.06
2022-09-25T17:46:00.035Z,45.18
2022-09-25T17:48:31.135Z,44.96
2022-09-25T17:51:01.716Z,45.03
2022-09-25T17:53:29.801Z,45.16
2022-09-25T17:55:57.104Z,45.04
2022-09-25T17:58:24.254Z,44.55
2022-09-25T18:00:51.505Z,45.02
2022-09-25T18:03:18.275Z,44.88
2022-09-25T18:05:44.980Z,44.75
2022-09-25T18:08:11.980Z,44.56
2022-09-25T18:10:38.680Z,44.08
2022-09-25T18:13:06.146Z,44.33
2022-09-25T18:15:36.756Z,44.35
2022-09-25T18:18:04.073Z,43.99
2022-09-25T18:20:49.462Z,44.12
2022-09-25T18:23:15.945Z,44.00
2022-09-25T18:25:42.493Z,44.14
2022-09-25T18:28:09.105Z,44.23
2022-09-25T18:30:38.015Z,43.98
2022-09-25T18:33:04.695Z,44.04
2022-09-25T18:35:31.221Z,43.96
2022-09-25T18:37:58.127Z,44.28
2022-09-25T18:40:24.680Z,44.07
2022-09-25T18:42:51.836Z,44.18
2022-09-25T18:45:18.355Z,44.12
2022-09-25T18:47:46.480Z,44.23
2022-09-25T18:50:18.096Z,44.42
2022-09-25T18:52:46.922Z,44.18
2022-09-25T18:55:13.395Z,44.43
2022-09-25T18:57:40.685Z,44.51
2022-09-25T19:00:07.732Z,44.50
2022-09-25T19:02:38.849Z,44.32
2022-09-25T19:05:06.397Z,44.40
2022-09-25T19:07:32.843Z,44.57
2022-09-25T19:10:01.894Z,44.53
2022-09-25T19:12:28.361Z,44.18
2022-09-25T19:14:54.819Z,44.26
2022-09-25T19:17:21.290Z,44.57
2022-09-25T19:19:47.760Z,44.55
2022-09-25T19:22:18.843Z,44.74
2022-09-25T19:24:46.053Z,44.82
2022-09-25T19:27:13.315Z,44.91
2022-09-25T19:29:39.986Z,44.67
2022-09-25T19:32:07.134Z,44.70
2022-09-25T19:34:33.649Z,44.82
2022-09-25T19:37:00.188Z,44.69
2022-09-25T19:39:26.889Z,44.78
2022-09-25T19:41:53.449Z,44.98
2022-09-25T19:44:20.097Z,45.11
2022-09-25T19:46:46.712Z,44.95
2022-09-25T19:49:14.324Z,45.15
2022-09-25T19:51:40.857Z,44.76
2022-09-25T19:54:08.074Z,45.25
2022-09-25T19:56:40.333Z,44.78
2022-09-25T19:59:08.734Z,44.85
2022-09-25T20:01:35.449Z,45.03
2022-09-25T20:04:06.621Z,44.99
2022-09-25T20:06:34.717Z,44.97
2022-09-25T20:09:01.215Z,45.22
2022-09-25T20:11:27.739Z,44.95
2022-09-25T20:13:54.344Z,44.97
2022-09-25T20:16:24.121Z,45.07
2022-09-25T20:18:53.540Z,44.93
2022-09-25T20:21:22.902Z,44.84
2022-09-25T20:23:53.489Z,44.88
2022-09-25T20:26:20.041Z,44.96
2022-09-25T20:28:46.708Z,45.18
2022-09-25T20:31:14.585Z,44.96
2022-09-25T20:33:42.242Z,44.65
2022-09-25T20:36:10.828Z,44.81
2022-09-25T20:38:37.282Z,44.95
2022-09-25T20:41:06.475Z,45.11
2022-09-25T20:43:32.964Z,44.89
2022-09-25T20:46:04.009Z,44.93
2022-09-25T20:48:31.751Z,44.86
2022-09-25T20:50:58.294Z,45.08
2022-09-25T20:53:25.228Z,45.09
2022-09-25T20:55:52.087Z,45.00
2022-09-25T20:58:18.585Z,44.68
2022-09-25T21:00:45.520Z,44.80
2022-09-25T21:03:12.978Z,44.88
2022-09-25T21:05:39.535Z,45.13
2022-09-25T21:08:06.092Z,45.13
2022-09-25T21:10:40.391Z,45.09
2022-09-25T21:13:06.926Z,45.19
2022-09-25T21:15:33.414Z,44.96
2022-09-25T21:18:00.004Z,45.12
2022-09-25T21:20:26.991Z,45.11
2022-09-25T21:22:54.394Z,45.33
2022-09-25T21:25:20.926Z,45.08
2022-09-25T21:27:47.688Z,45.16
2022-09-25T21:30:14.153Z,45.05
2022-09-25T21:32:40.875Z,44.99
2022-09-25T21:35:07.510Z,45.16
2022-09-25T21:37:34.402Z,45.15
2022-09-25T21:40:00.938Z,45.21
2022-09-25T21:42:29.637Z,45.33
2022-09-25T21:44:57.028Z,45.34
2022-09-25T21:47:23.566Z,45.51
2022-09-25T21:49:50.055Z,45.48
2022-09-25T21:52:16.511Z,45.35
2022-09-25T21:54:42.967Z,45.45
2022-09-25T21:57:09.429Z,45.41
2022-09-25T21:59:35.940Z,45.39
2022-09-25T22:02:02.661Z,45.47
2022-09-25T22:04:29.150Z,45.57
2022-09-25T22:06:57.467Z,45.49
2022-09-25T22:09:24.261Z,45.29
2022-09-25T22:11:51.050Z,45.54
2022-09-25T22:14:18.143Z,45.46
2022-09-25T22:16:47.035Z,45.58
2022-09-25T22:19:25.012Z,45.46
2022-09-25T22:21:52.138Z,45.34
2022-09-25T22:24:18.811Z,45.32
2022-09-25T22:26:46.102Z,45.23
2022-09-25T22:29:12.834Z,45.28
2022-09-25T22:31:43.136Z,45.41
2022-09-25T22:34:21.185Z,45.34
2022-09-25T22:36:47.923Z,45.27
2022-09-25T22:39:15.441Z,45.49
2022-09-25T22:41:41.980Z,45.36
2022-09-25T22:44:08.460Z,45.55
2022-09-25T22:46:35.022Z,45.53
2022-09-25T22:49:01.630Z,45.47
2022-09-25T22:51:28.128Z,45.39
2022-09-25T22:53:54.580Z,45.61
2022-09-25T22:56:28.865Z,45.64
2022-09-25T22:59:00.281Z,45.45
2022-09-25T23:01:31.079Z,45.48
2022-09-25T23:03:59.270Z,45.70
2022-09-25T23:06:26.612Z,45.58
2022-09-25T23:09:02.035Z,45.49
2022-09-25T23:11:28.555Z,45.41
2022-09-25T23:14:06.511Z,45.45
2022-09-25T23:16:33.208Z,45.51
2022-09-25T23:18:59.799Z,45.62
2022-09-25T23:21:26.756Z,45.42
2022-09-25T23:23:56.924Z,45.35
2022-09-25T23:26:23.392Z,45.35
2022-09-25T23:28:49.855Z,45.32
2022-09-25T23:31:16.568Z,45.32
2022-09-25T23:33:43.315Z,45.27
2022-09-25T23:36:22.735Z,45.16
2022-09-25T23:38:49.734Z,45.29
2022-09-25T23:41:26.849Z,45.21
2022-09-25T23:43:53.983Z,45.13
2022-09-25T23:46:21.593Z,45.06
2022-09-25T23:48:48.170Z,45.11
2022-09-25T23:51:15.199Z,45.20
2022-09-25T23:53:42.006Z,45.27
2022-09-25T23:56:09.580Z,45.29
2022-09-25T23:58:36.057Z,45.11
